createdAt,value
2022-10-20T00:01:05.225Z,19.19
2022-10-20T00:03:34.085Z,20.71
2022-10-20T00:06:09.447Z,19.73
2022-10-20T00:08:36.656Z,18.47
2022-10-20T00:16:30.806Z,19.15
2022-10-20T00:18:59.405Z,19.28
2022-10-20T00:21:28.905Z,19.41
2022-10-20T00:23:56.145Z,18.92
2022-10-20T00:26:25.066Z,19.07
2022-10-20T00:28:53.685Z,20.04
2022-10-20T00:31:23.027Z,20.43
2022-10-20T00:33:50.160Z,20.41
2022-10-20T00:36:21.119Z,19.87
2022-10-20T00:38:48.505Z,18.61
2022-10-20T00:41:17.885Z,19.85
2022-10-20T00:43:48.908Z,19.43
2022-10-20T00:46:20.552Z,19.60
2022-10-20T00:48:52.426Z,19.34
2022-10-20T00:51:26.458Z,20.53
2022-10-20T00:53:59.245Z,20.20
2022-10-20T00:56:26.686Z,19.85
2022-10-20T00:58:54.686Z,21.32
2022-10-20T01:01:21.876Z,21.61
2022-10-20T01:03:51.766Z,20.14
2022-10-20T01:06:22.528Z,20.10
2022-10-20T01:08:52.824Z,19.23
2022-10-20T01:11:32.466Z,19.26
2022-10-20T01:14:20.986Z,19.22
2022-10-20T01:17:01.246Z,18.63
2022-10-20T01:20:18.772Z,19.02
2022-10-20T01:23:32.506Z,17.63
2022-10-20T01:26:31.148Z,13.09
2022-10-20T01:29:05.265Z,12.76
2022-10-20T01:31:40.746Z,12.19
2022-10-20T01:34:15.980Z,11.79
2022-10-20T01:36:51.346Z,11.69
2022-10-20T01:39:28.589Z,12.50
2022-10-20T01:42:02.066Z,12.52
2022-10-20T01:44:34.848Z,12.55
2022-10-20T01:47:03.887Z,13.27
2022-10-20T01:49:31.226Z,13.68
2022-10-20T01:51:58.485Z,14.15
2022-10-20T01:54:28.926Z,13.61
2022-10-20T01:57:13.487Z,14.30
2022-10-20T02:00:00.088Z,15.47
2022-10-20T02:02:58.986Z,13.83
2022-10-20T02:05:40.206Z,13.24
2022-10-20T02:08:15.366Z,13.31
2022-10-20T02:10:48.247Z,12.66
2022-10-20T02:13:19.748Z,13.12
2022-10-20T02:15:53.507Z,13.39
2022-10-20T02:18:27.085Z,13.95
2022-10-20T02:20:58.727Z,13.69
2022-10-20T02:23:25.886Z,13.45
2022-10-20T02:25:56.145Z,14.12
2022-10-20T02:28:25.715Z,14.00
2022-10-20T02:30:56.445Z,13.94
2022-10-20T02:33:23.807Z,13.35
2022-10-20T02:35:57.028Z,13.78
2022-10-20T02:38:24.537Z,13.91
2022-10-20T02:40:52.147Z,13.02
2022-10-20T02:43:19.185Z,13.86
2022-10-20T02:45:46.266Z,14.18
2022-10-20T02:48:14.785Z,15.29
2022-10-20T02:50:41.806Z,15.64
2022-10-20T02:53:08.908Z,15.20
2022-10-20T02:55:35.990Z,14.30
2022-10-20T02:58:03.007Z,14.55
2022-10-20T03:00:30.066Z,14.51
2022-10-20T03:02:57.570Z,14.14
2022-10-20T03:05:26.647Z,16.19
2022-10-20T03:07:53.905Z,15.17
2022-10-20T03:10:21.230Z,16.74
2022-10-20T03:12:48.325Z,17.17
2022-10-20T03:15:15.488Z,18.10
2022-10-20T03:17:42.525Z,17.04
2022-10-20T03:20:10.606Z,16.11
2022-10-20T03:22:39.150Z,16.87
2022-10-20T03:25:06.832Z,16.40
2022-10-20T03:27:34.157Z,16.39
2022-10-20T03:30:01.427Z,16.48
2022-10-20T03:32:28.558Z,16.87
2022-10-20T03:34:55.627Z,16.14
2022-10-20T03:37:22.767Z,15.91
2022-10-20T03:39:51.327Z,16.66
2022-10-20T03:42:18.386Z,16.83
2022-10-20T03:44:45.430Z,18.86
2022-10-20T03:47:12.828Z,18.62
2022-10-20T03:49:40.393Z,18.82
2022-10-20T03:52:07.510Z,18.69
2022-10-20T03:54:36.526Z,18.29
2022-10-20T03:57:07.645Z,17.18
2022-10-20T03:59:35.172Z,17.97
2022-10-20T04:02:02.524Z,17.88
2022-10-20T04:04:29.766Z,17.25
2022-10-20T04:06:56.887Z,17.75
2022-10-20T04:09:23.886Z,16.68
2022-10-20T04:11:50.967Z,16.16
2022-10-20T04:14:19.485Z,17.29
2022-10-20T04:16:46.569Z,16.14
2022-10-20T04:19:13.907Z,19.72
2022-10-20T04:21:40.946Z,17.89
2022-10-20T04:24:07.986Z,19.30
2022-10-20T04:26:35.006Z,18.87
2022-10-20T04:29:02.048Z,17.64
2022-10-20T04:31:30.587Z,17.50
2022-10-20T04:33:57.666Z,18.15
2022-10-20T04:36:24.686Z,17.76
2022-10-20T04:38:51.726Z,18.61
2022-10-20T04:41:18.807Z,19.10
2022-10-20T04:43:50.906Z,19.48
2022-10-20T04:46:18.627Z,19.12
2022-10-20T04:48:47.147Z,18.38
2022-10-20T04:51:16.366Z,18.64
2022-10-20T04:53:43.447Z,16.19
2022-10-20T04:56:14.287Z,18.33
2022-10-20T04:58:41.326Z,19.53
2022-10-20T05:01:10.344Z,20.71
2022-10-20T05:03:37.786Z,21.32
2022-10-20T05:06:11.634Z,20.80
2022-10-20T05:08:39.895Z,20.61
2022-10-20T05:11:08.165Z,19.13
2022-10-20T05:13:35.385Z,17.87
2022-10-20T05:16:03.226Z,14.82
2022-10-20T05:18:30.466Z,16.65
2022-10-20T05:21:08.411Z,18.07
2022-10-20T05:23:39.407Z,18.65
2022-10-20T05:26:10.209Z,17.61
2022-10-20T05:28:37.348Z,18.32
2022-10-20T05:31:06.707Z,18.64
2022-10-20T05:33:35.090Z,17.76
2022-10-20T05:36:07.708Z,18.54
2022-10-20T05:38:35.051Z,17.05
2022-10-20T05:41:08.307Z,17.94
2022-10-20T05:43:35.391Z,17.43
2022-10-20T05:46:02.954Z,18.53
2022-10-20T05:48:29.987Z,18.83
2022-10-20T05:51:08.417Z,15.96
2022-10-20T05:53:37.806Z,13.73
2022-10-20T05:56:08.728Z,14.29
2022-10-20T05:58:36.450Z,13.53
2022-10-20T06:01:08.547Z,15.90
2022-10-20T06:03:36.907Z,14.64
2022-10-20T06:06:04.948Z,15.51
2022-10-20T06:08:33.226Z,15.87
2022-10-20T06:11:04.527Z,15.63
2022-10-20T06:13:33.328Z,18.13
2022-10-20T06:16:04.970Z,17.77
2022-10-20T06:18:33.130Z,16.48
2022-10-20T06:21:02.488Z,17.47
2022-10-20T06:23:29.654Z,17.49
2022-10-20T06:26:02.310Z,17.60
2022-10-20T06:28:30.650Z,17.97
2022-10-20T06:30:59.926Z,17.42
2022-10-20T06:33:30.262Z,16.34
2022-10-20T06:35:59.748Z,17.51
2022-10-20T06:38:26.886Z,18.06
2022-10-20T06:40:53.970Z,18.58
2022-10-20T06:43:21.227Z,19.43
2022-10-20T06:45:54.850Z,18.68
2022-10-20T06:48:23.528Z,18.71
2022-10-20T06:50:50.747Z,18.99
2022-10-20T06:53:17.808Z,18.92
2022-10-20T06:55:44.867Z,18.52
2022-10-20T06:58:11.867Z,19.52
2022-10-20T07:00:38.907Z,18.51
2022-10-20T07:03:06.164Z,19.73
2022-10-20T07:05:35.646Z,18.79
2022-10-20T07:08:02.787Z,19.06
2022-10-20T07:10:30.214Z,19.13
2022-10-20T07:12:57.348Z,19.49
2022-10-20T07:15:24.347Z,18.24
2022-10-20T07:17:51.418Z,20.07
2022-10-20T07:20:18.468Z,19.18
2022-10-20T07:22:47.086Z,18.85
2022-10-20T07:25:14.238Z,18.68
2022-10-20T07:27:41.389Z,19.73
2022-10-20T07:30:08.909Z,18.53
2022-10-20T07:32:36.601Z,18.87
2022-10-20T07:35:04.988Z,19.21
2022-10-20T07:37:32.087Z,18.69
2022-10-20T07:40:00.667Z,18.60
2022-10-20T07:42:29.608Z,19.03
2022-10-20T07:44:56.668Z,17.28
2022-10-20T07:47:23.987Z,19.67
2022-10-20T07:49:51.066Z,20.34
2022-10-20T07:52:18.208Z,19.83
2022-10-20T07:54:45.388Z,19.47
2022-10-20T07:57:13.906Z,19.09
2022-10-20T07:59:41.447Z,19.47
2022-10-20T08:02:11.464Z,19.52
2022-10-20T08:04:38.590Z,20.16
2022-10-20T08:07:05.646Z,20.26
2022-10-20T08:09:33.858Z,20.32
2022-10-20T08:12:01.188Z,20.35
2022-10-20T08:14:29.989Z,20.71
2022-10-20T08:16:57.057Z,20.00
2022-10-20T08:22:04.950Z,20.28
2022-10-20T08:24:32.027Z,20.83
2022-10-20T08:26:59.213Z,20.89
2022-10-20T08:29:26.229Z,21.15
2022-10-20T08:31:54.833Z,20.99
2022-10-20T08:34:21.967Z,19.60
2022-10-20T08:36:49.009Z,19.50
2022-10-20T08:39:16.770Z,20.84
2022-10-20T08:44:38.287Z,18.25
2022-10-20T08:47:30.662Z,19.05
2022-10-20T08:50:01.187Z,19.57
2022-10-20T08:52:28.708Z,18.94
2022-10-20T08:54:57.926Z,19.04
2022-10-20T08:57:28.748Z,18.50
2022-10-20T09:00:08.083Z,19.37
2022-10-20T09:02:37.947Z,20.66
2022-10-20T09:05:09.070Z,18.87
2022-10-20T09:07:39.661Z,19.45
2022-10-20T09:10:23.608Z,18.40
2022-10-20T09:12:51.746Z,18.77
2022-10-20T09:15:21.549Z,18.30
2022-10-20T09:17:53.809Z,17.57
2022-10-20T09:20:25.629Z,19.05
2022-10-20T09:22:52.771Z,18.66
2022-10-20T09:25:22.869Z,18.94
2022-10-20T09:27:51.047Z,19.98
2022-10-20T09:30:21.968Z,18.90
2022-10-20T09:32:50.995Z,17.98
2022-10-20T09:35:25.809Z,16.14
2022-10-20T09:38:02.267Z,17.37
2022-10-20T09:40:30.790Z,17.71
2022-10-20T09:43:02.182Z,16.36
2022-10-20T09:45:32.170Z,15.65
2022-10-20T09:48:08.249Z,14.82
2022-10-20T09:50:39.628Z,15.42
2022-10-20T09:53:18.687Z,13.56
2022-10-20T09:55:48.611Z,13.66
2022-10-20T09:58:29.209Z,13.78
2022-10-20T10:01:01.746Z,12.50
2022-10-20T10:03:39.610Z,12.08
2022-10-20T10:06:27.733Z,13.21
2022-10-20T10:08:56.645Z,12.37
2022-10-20T10:11:31.896Z,13.47
2022-10-20T10:13:59.290Z,13.99
2022-10-20T10:16:27.328Z,14.58
2022-10-20T10:19:02.121Z,12.91
2022-10-20T10:21:43.148Z,12.81
2022-10-20T10:24:34.156Z,12.39
2022-10-20T10:27:01.530Z,12.13
2022-10-20T10:29:33.910Z,11.63
2022-10-20T10:32:03.206Z,12.30
2022-10-20T10:34:45.110Z,11.87
2022-10-20T10:37:15.614Z,10.18
2022-10-20T10:39:44.242Z,11.01
2022-10-20T10:42:39.448Z,10.84
2022-10-20T10:45:19.108Z,10.08
2022-10-20T10:48:31.369Z,10.10
2022-10-20T10:51:02.889Z,10.39
2022-10-20T10:53:50.238Z,10.12
2022-10-20T10:56:29.654Z,10.86
2022-10-20T10:59:01.889Z,10.85
2022-10-20T11:01:55.310Z,10.17
2022-10-20T11:04:54.316Z,10.36
2022-10-20T11:07:32.434Z,9.76
2022-10-20T11:10:08.227Z,9.21
2022-10-20T11:12:57.123Z,8.87
2022-10-20T11:15:39.587Z,8.28
2022-10-20T11:18:18.945Z,8.55
2022-10-20T11:20:56.083Z,8.54
2022-10-20T11:23:47.042Z,8.97
2022-10-20T11:26:25.479Z,9.31
2022-10-20T11:28:58.012Z,9.02
2022-10-20T11:31:32.666Z,9.96
2022-10-20T11:34:06.079Z,10.39
2022-10-20T11:36:40.403Z,11.64
2022-10-20T11:39:18.054Z,12.47
2022-10-20T11:41:49.367Z,12.33
2022-10-20T11:44:24.681Z,12.63
2022-10-20T11:46:57.822Z,12.99
2022-10-20T11:49:25.482Z,13.18
2022-10-20T11:52:29.407Z,12.70
2022-10-20T11:55:26.623Z,13.89
2022-10-20T11:58:25.481Z,13.56
2022-10-20T12:01:07.101Z,13.95
2022-10-20T12:04:25.221Z,14.90
2022-10-20T12:07:12.107Z,14.31
2022-10-20T12:10:03.266Z,14.73
2022-10-20T12:12:43.981Z,15.29
2022-10-20T12:15:23.561Z,15.90
2022-10-20T12:17:52.441Z,14.35
2022-10-20T12:20:48.221Z,14.57
2022-10-20T12:23:48.343Z,15.10
2022-10-20T12:27:03.920Z,13.98
2022-10-20T12:29:54.946Z,14.11
2022-10-20T12:33:08.780Z,13.98
2022-10-20T12:36:01.794Z,14.84
2022-10-20T12:38:31.460Z,13.77
2022-10-20T12:41:02.440Z,14.03
2022-10-20T12:43:34.501Z,12.75
2022-10-20T12:46:16.466Z,13.82
2022-10-20T12:48:50.473Z,12.58
2022-10-20T12:51:23.262Z,13.22
2022-10-20T12:54:02.619Z,13.49
2022-10-20T12:56:36.382Z,12.01
2022-10-20T12:59:36.781Z,12.40
2022-10-20T13:02:49.737Z,12.83
2022-10-20T13:05:42.101Z,10.87
2022-10-20T13:08:27.360Z,11.11
2022-10-20T13:10:55.800Z,11.05
2022-10-20T13:13:50.242Z,10.63
2022-10-20T13:16:23.181Z,10.42
2022-10-20T13:18:54.320Z,11.44
2022-10-20T13:21:34.819Z,11.16
2022-10-20T13:24:13.361Z,11.44
2022-10-20T13:26:52.441Z,12.01
2022-10-20T13:29:26.603Z,12.17
2022-10-20T13:34:49.981Z,12.76
2022-10-20T13:37:44.241Z,12.48
2022-10-20T13:40:24.046Z,11.66
2022-10-20T13:43:05.262Z,11.92
2022-10-20T13:45:49.904Z,12.23
2022-10-20T13:48:34.802Z,12.16
2022-10-20T13:51:10.661Z,11.96
2022-10-20T13:53:43.401Z,10.38
2022-10-20T13:56:35.114Z,10.33
2022-10-20T13:59:06.081Z,10.06
2022-10-20T14:01:36.442Z,10.67
2022-10-20T14:04:23.866Z,10.23
2022-10-20T14:06:52.400Z,10.93
2022-10-20T14:09:22.221Z,11.06
2022-10-20T14:11:54.622Z,11.44
2022-10-20T14:14:25.804Z,10.42
2022-10-20T14:16:57.162Z,8.39
2022-10-20T14:19:26.782Z,9.26
2022-10-20T14:21:57.367Z,9.38
2022-10-20T14:24:31.347Z,8.26
2022-10-20T14:27:02.050Z,7.30
2022-10-20T14:29:33.463Z,8.18
2022-10-20T14:32:01.402Z,7.29
2022-10-20T14:34:31.239Z,7.60
2022-10-20T14:37:00.903Z,8.41
2022-10-20T14:39:35.422Z,8.46
2022-10-20T14:42:05.444Z,8.07
2022-10-20T14:44:33.043Z,8.53
2022-10-20T14:47:02.943Z,8.87
2022-10-20T14:49:37.628Z,8.80
2022-10-20T14:52:22.023Z,9.50
2022-10-20T14:54:51.010Z,9.74
2022-10-20T14:57:40.324Z,9.57
2022-10-20T15:00:32.925Z,11.88
2022-10-20T15:03:03.478Z,11.51
2022-10-20T15:05:37.866Z,10.99
2022-10-20T15:08:27.848Z,10.80
2022-10-20T15:10:55.455Z,10.48
2022-10-20T15:13:29.284Z,11.00
2022-10-20T15:15:58.403Z,10.30
2022-10-20T15:18:26.122Z,10.29
2022-10-20T15:20:54.281Z,10.89
2022-10-20T15:23:24.682Z,10.65
2022-10-20T15:25:55.480Z,11.27
2022-10-20T15:28:44.480Z,11.34
2022-10-20T15:31:20.081Z,11.12
2022-10-20T15:33:47.720Z,10.68
2022-10-20T15:36:16.542Z,12.76
2022-10-20T15:38:45.080Z,14.49
2022-10-20T15:41:14.099Z,14.52
2022-10-20T15:43:41.121Z,14.61
2022-10-20T15:46:11.786Z,15.63
2022-10-20T15:48:38.880Z,15.27
2022-10-20T15:51:17.314Z,14.42
2022-10-20T15:53:45.864Z,13.47
2022-10-20T15:56:12.921Z,12.76
2022-10-20T15:58:40.122Z,14.50
2022-10-20T16:01:07.868Z,15.18
2022-10-20T16:03:35.222Z,15.15
2022-10-20T16:06:02.300Z,15.95
2022-10-20T16:08:29.455Z,15.82
2022-10-20T16:10:58.000Z,14.68
2022-10-20T16:13:25.059Z,14.77
2022-10-20T16:15:52.142Z,14.55
2022-10-20T16:18:19.200Z,15.46
2022-10-20T16:20:46.343Z,15.20
2022-10-20T16:23:13.441Z,15.14
2022-10-20T16:25:41.323Z,14.57
2022-10-20T16:28:10.044Z,13.88
2022-10-20T16:30:37.744Z,13.22
2022-10-20T16:33:04.921Z,12.74
2022-10-20T16:35:32.072Z,11.35
2022-10-20T16:37:59.124Z,11.48
2022-10-20T16:40:26.221Z,10.78
2022-10-20T16:42:53.360Z,9.94
2022-10-20T16:47:54.081Z,10.33
2022-10-20T16:50:21.241Z,9.34
2022-10-20T16:52:48.269Z,7.63
2022-10-20T16:55:15.602Z,7.57
2022-10-20T16:57:42.660Z,8.19
2022-10-20T17:00:10.840Z,7.67
2022-10-20T17:02:39.460Z,8.79
2022-10-20T17:05:09.265Z,8.31
2022-10-20T17:07:37.235Z,8.47
2022-10-20T17:10:05.340Z,8.26
2022-10-20T17:12:32.440Z,8.91
2022-10-20T17:14:59.441Z,8.28
2022-10-20T17:17:26.481Z,7.72
2022-10-20T17:19:55.083Z,7.73
2022-10-20T17:22:22.222Z,7.54
2022-10-20T17:24:49.362Z,6.75
2022-10-20T17:27:16.860Z,7.05
2022-10-20T17:29:44.072Z,6.96
2022-10-20T17:32:14.381Z,6.58
2022-10-20T17:34:44.421Z,7.03
2022-10-20T17:37:12.943Z,7.39
2022-10-20T17:39:40.082Z,6.71
2022-10-20T17:42:07.062Z,6.21
2022-10-20T17:44:34.165Z,5.97
2022-10-20T17:47:01.301Z,6.48
2022-10-20T17:49:28.639Z,6.99
2022-10-20T17:51:55.680Z,7.02
2022-10-20T17:54:24.443Z,7.34
2022-10-20T17:56:51.541Z,7.55
2022-10-20T17:59:18.801Z,7.43
2022-10-20T18:01:45.926Z,7.12
2022-10-20T18:04:15.224Z,7.43
2022-10-20T18:06:43.821Z,7.68
2022-10-20T18:09:13.890Z,8.86
2022-10-20T18:11:46.481Z,8.36
2022-10-20T18:14:13.719Z,8.77
2022-10-20T18:16:41.002Z,8.55
2022-10-20T18:19:11.683Z,8.19
2022-10-20T18:21:38.681Z,8.54
2022-10-20T18:24:08.022Z,8.70
2022-10-20T18:26:36.981Z,8.72
2022-10-20T18:29:07.823Z,9.28
2022-10-20T18:31:38.822Z,8.74
2022-10-20T18:34:08.484Z,8.18
2022-10-20T18:36:40.331Z,8.08
2022-10-20T18:39:10.604Z,8.45
2022-10-20T18:41:40.004Z,8.61
2022-10-20T18:44:12.414Z,8.61
2022-10-20T18:46:40.720Z,8.40
2022-10-20T18:49:11.179Z,7.63
2022-10-20T18:51:38.841Z,7.37
2022-10-20T18:54:08.481Z,8.01
2022-10-20T18:56:36.519Z,7.87
2022-10-20T18:59:07.262Z,7.64
2022-10-20T19:01:39.255Z,7.76
2022-10-20T19:04:07.600Z,7.64
2022-10-20T19:06:36.721Z,7.93
2022-10-20T19:09:07.094Z,7.97
2022-10-20T19:11:36.794Z,8.11
2022-10-20T19:14:04.601Z,8.30
2022-10-20T19:16:34.120Z,7.88
2022-10-20T19:19:06.023Z,7.05
2022-10-20T19:21:34.801Z,7.34
2022-10-20T19:24:05.082Z,7.94
2022-10-20T19:26:34.555Z,7.47
2022-10-20T19:29:04.721Z,7.30
2022-10-20T19:31:35.121Z,7.00
2022-10-20T19:34:07.125Z,5.26
2022-10-20T19:36:34.520Z,3.49
2022-10-20T19:39:01.962Z,4.63
2022-10-20T19:41:29.722Z,5.96
2022-10-20T19:43:56.782Z,6.43
2022-10-20T19:46:24.283Z,6.60
2022-10-20T19:48:51.981Z,8.27
2022-10-20T19:51:21.941Z,8.50
2022-10-20T19:53:50.563Z,8.55
2022-10-20T19:56:18.161Z,8.23
2022-10-20T19:58:46.802Z,7.92
2022-10-20T20:01:15.325Z,7.84
2022-10-20T20:03:43.202Z,7.70
2022-10-20T20:06:12.939Z,7.73
2022-10-20T20:08:41.501Z,7.03
2022-10-20T20:11:09.302Z,7.30
2022-10-20T20:13:36.361Z,6.79
2022-10-20T20:16:07.728Z,7.14
2022-10-20T20:18:35.690Z,6.99
2022-10-20T20:21:05.341Z,7.57
2022-10-20T20:23:41.243Z,7.11
2022-10-20T20:26:23.520Z,7.01
2022-10-20T20:28:52.936Z,7.01
2022-10-20T20:31:24.157Z,7.21
2022-10-20T20:33:52.323Z,6.80
2022-10-20T20:36:20.320Z,6.76
2022-10-20T20:38:47.417Z,6.75
2022-10-20T20:41:17.021Z,7.03
2022-10-20T20:43:45.721Z,7.04
2022-10-20T20:46:15.653Z,7.25
2022-10-20T20:48:43.029Z,6.71
2022-10-20T20:51:10.380Z,6.38
2022-10-20T20:53:38.906Z,6.70
2022-10-20T20:56:09.422Z,6.71
2022-10-20T20:58:37.780Z,6.91
2022-10-20T21:01:08.593Z,6.66
2022-10-20T21:03:36.812Z,6.77
2022-10-20T21:06:05.722Z,6.00
2022-10-20T21:08:33.295Z,5.69
2022-10-20T21:11:06.119Z,5.88
2022-10-20T21:13:34.343Z,5.38
2022-10-20T21:16:11.321Z,5.86
2022-10-20T21:18:39.010Z,6.18
2022-10-20T21:23:43.775Z,5.96
2022-10-20T21:26:13.285Z,5.56
2022-10-20T21:28:40.749Z,4.88
2022-10-20T21:31:12.117Z,5.01
2022-10-20T21:33:40.419Z,5.45
2022-10-20T21:36:10.802Z,5.76
2022-10-20T21:38:39.901Z,6.26
2022-10-20T21:41:09.202Z,5.48
2022-10-20T21:43:38.305Z,5.82
2022-10-20T21:46:12.844Z,5.85
2022-10-20T21:48:40.368Z,5.17
2022-10-20T21:51:09.582Z,5.59
2022-10-20T21:53:36.821Z,5.27
2022-10-20T21:56:04.244Z,5.29
2022-10-20T21:58:31.335Z,5.50
2022-10-20T22:00:58.729Z,5.62
2022-10-20T22:03:27.510Z,5.22
2022-10-20T22:05:54.546Z,5.57
2022-10-20T22:08:21.586Z,5.50
2022-10-20T22:10:48.725Z,5.92
2022-10-20T22:13:15.765Z,5.88
2022-10-20T22:15:42.826Z,6.05
2022-10-20T22:18:09.865Z,5.89
2022-10-20T22:20:38.567Z,5.85
2022-10-20T22:23:05.795Z,6.00
2022-10-20T22:25:36.386Z,6.01
2022-10-20T22:28:03.907Z,5.33
2022-10-20T22:30:31.165Z,5.93
2022-10-20T22:32:58.208Z,6.27
2022-10-20T22:35:25.430Z,6.34
2022-10-20T22:37:54.011Z,6.21
2022-10-20T22:40:21.177Z,5.96
2022-10-20T22:42:48.345Z,5.59
2022-10-20T22:45:15.647Z,5.59
2022-10-20T22:47:42.765Z,5.39
2022-10-20T22:50:09.946Z,5.31
2022-10-20T22:52:37.126Z,5.54
2022-10-20T22:55:07.265Z,5.55
2022-10-20T22:57:34.664Z,5.54
2022-10-20T23:00:01.826Z,6.07
2022-10-20T23:02:28.846Z,5.73
2022-10-20T23:04:55.866Z,5.63
2022-10-20T23:07:22.907Z,5.66
2022-10-20T23:09:50.004Z,4.79
2022-10-20T23:12:18.512Z,5.00
2022-10-20T23:14:45.608Z,5.51
2022-10-20T23:17:12.721Z,5.34
2022-10-20T23:19:39.764Z,6.08
2022-10-20T23:22:06.803Z,5.95
2022-10-20T23:24:33.847Z,6.00
2022-10-20T23:27:00.844Z,5.67
2022-10-20T23:29:29.688Z,5.29
2022-10-20T23:31:56.874Z,5.26
2022-10-20T23:34:24.903Z,5.41
2022-10-20T23:36:52.485Z,5.48
2022-10-20T23:39:19.546Z,5.67
2022-10-20T23:41:46.544Z,5.38
2022-10-20T23:44:13.617Z,5.37
2022-10-20T23:46:42.128Z,5.42
2022-10-20T23:49:09.386Z,5.24
2022-10-20T23:51:36.504Z,5.49
2022-10-20T23:54:03.745Z,5.22
2022-10-20T23:56:30.825Z,4.77
2022-10-20T23:58:57.904Z,4.86
